Lammy — PBRE — position and weather

sailwx.info

Track history (hours):
 
Tides and Currents Weather Stations Pressure Air Temp Water Temp Dewpoint Dewpoint Depression Visibility Wind Speed Wind Dir Waves Ship Positions

Lammy

Last reported at 2015-Jul-23 16:32 UTC. Time now 2015-Jul-30 06:12 UTC.
Position N 57°33' E 017°25'.

Length 95 m; draft 3.8 m.

Type: Cargo ship. MMSI: 245391000.

Date/timePositionNaut miles runAvg speedWind from/ knotsBaromVisibWave heightAir tempDewpointWater temp
2015-Jul-23 16:32N 57°33' E 017°25'1111.0
2015-Jul-23 15:33N 57°22' E 017°24'1111.0
2015-Jul-23 14:32N 57°11' E 017°22'12310.2
2015-Jul-23 02:33N 55°33' E 015°10'1111.4
2015-Jul-23 01:33N 55°27' E 014°52'1111.3
2015-Jul-23 00:33N 55°21' E 014°36'1211.3
2015-Jul-22 23:32N 55°12' E 014°23'1111.5
2015-Jul-22 22:33N 55°04' E 014°10'4911.1
2015-Jul-22 18:06N 54°45' E 012°51'610.6
2015-Jul-22 17:33N 54°43' E 012°41'1513.6
2015-Jul-22 16:29N 54°35' E 012°20'8 8.3
2015-Jul-22 15:33N 54°28' E 012°14'1010.1
2015-Jul-22 14:33N 54°21' E 012°02'1010.3
2015-Jul-22 13:33N 54°17' E 011°46'1010.3
2015-Jul-22 12:33N 54°12' E 011°30'1010.3
2015-Jul-22 11:33N 54°07' E 011°15'8 0.2
2015-Jul-21 03:12N 54°04' E 011°03'4 6.9
2015-Jul-21 02:33N 54°07' E 011°09'6 6.5
2015-Jul-21 01:33N 54°11' E 011°16'6 6.5
2015-Jul-21 00:33N 54°17' E 011°20'6 6.3
2015-Jul-20 23:33N 54°23' E 011°24'6 6.1
2015-Jul-20 22:33N 54°29' E 011°22'6 6.4
2015-Jul-20 21:33N 54°34' E 011°14'8 7.6
2015-Jul-20 20:33N 54°38' E 011°03'10 7.0
2015-Jul-20 19:11N 54°45' E 010°52'6 8.1
2015-Jul-20 18:27N 54°51' E 010°52'114 7.7
2015-Jul-20 03:31N 56°41' E 011°47'9 9.2
2015-Jul-20 02:33N 56°50' E 011°48'1210.2
2015-Jul-20 01:23N 57°02' E 011°40'8 9.9
2015-Jul-20 00:33N 57°09' E 011°35'1010.2
2015-Jul-19 23:33N 57°19' E 011°29'1010.4
2015-Jul-19 22:33N 57°29' E 011°22'1110.7
2015-Jul-19 21:33N 57°36' E 011°07'1110.4
2015-Jul-19 20:31N 57°43' E 010°52'41510.7
2015-Jul-18 05:33N 55°05' W 000°41'1110.7
2015-Jul-18 04:31N 55°00' W 000°59'14 0.6
2015-Jul-17 04:21N 54°54' W 001°22'0 0.0
2015-Jul-16 22:33N 54°54' W 001°22'0 0.0
2015-Jul-16 21:24N 54°54' W 001°22'0 0.0
2015-Jul-16 20:30N 54°54' W 001°22'0 0.0
2015-Jul-16 16:16N 54°54' W 001°22'1 0.9
2015-Jul-16 15:31N 54°55' W 001°22'3 3.1
2015-Jul-16 14:33N 54°53' W 001°17'3 3.0
2015-Jul-16 13:33N 54°56' W 001°16'4 4.3
2015-Jul-16 12:33N 54°53' W 001°12'4 4.1
2015-Jul-16 11:33N 54°53' W 001°04'7 7.4
2015-Jul-16 10:33N 54°47' W 000°57'8 8.1
2015-Jul-16 09:33N 54°43' W 000°45'9 8.4
2015-Jul-16 08:31N 54°38' W 000°32'8 8.0
2015-Jul-16 07:33N 54°34' W 000°21'9 8.5
2015-Jul-16 06:33N 54°26' W 000°14'8 8.4
2015-Jul-16 05:33N 54°19' W 000°06'8 7.6
2015-Jul-16 04:33N 54°13' E 000°01'7 7.0
2015-Jul-16 03:33N 54°06' E 000°06'7 7.0
2015-Jul-16 02:33N 53°60' E 000°10'7 7.0
2015-Jul-16 01:33N 53°53' E 000°14'7 7.1
2015-Jul-16 00:33N 53°46' E 000°18'8 7.7
2015-Jul-15 23:33N 53°39' E 000°22'1010.3
2015-Jul-15 22:33N 53°33' E 000°08'1413.7
2015-Jul-15 21:33N 53°40' W 000°12'6 6.0
2015-Jul-15 20:34N 53°45' W 000°18'0 0.3
2015-Jul-15 19:31N 53°45' W 000°17'0 0.0
2015-Jul-15 18:31N 53°45' W 000°17'0 0.0
2015-Jul-15 17:31N 53°45' W 000°17'0 0.0
2015-Jul-15 16:31N 53°45' W 000°17'0 0.0
2015-Jul-15 15:31N 53°45' W 000°17'0 0.0
2015-Jul-15 14:31N 53°45' W 000°17'0 0.0
2015-Jul-15 13:31N 53°45' W 000°17'0 0.0
2015-Jul-15 12:31N 53°45' W 000°17'0 0.0
2015-Jul-15 11:31N 53°45' W 000°17'0 0.0
2015-Jul-15 10:31N 53°45' W 000°17'0 0.0
2015-Jul-15 09:31N 53°45' W 000°17'0 0.0
2015-Jul-15 08:31N 53°45' W 000°17'0 0.0
2015-Jul-15 07:31N 53°45' W 000°17'0 0.0
2015-Jul-15 06:31N 53°45' W 000°17'0 0.0
2015-Jul-15 05:31N 53°45' W 000°17'0 0.0
2015-Jul-15 04:31N 53°45' W 000°17'0 0.0
2015-Jul-15 03:31N 53°45' W 000°17'0 0.0
2015-Jul-15 02:31N 53°45' W 000°17'0 0.0
2015-Jul-15 01:31N 53°45' W 000°17'0 0.0
2015-Jul-15 00:31N 53°45' W 000°17'0 0.0
2015-Jul-14 23:31N 53°45' W 000°17'0 0.0
2015-Jul-14 22:31N 53°45' W 000°17'0 0.0
2015-Jul-14 21:31N 53°45' W 000°17'0 0.0
2015-Jul-14 20:31N 53°45' W 000°17'0 0.0
2015-Jul-14 19:31N 53°45' W 000°17'0 0.1
2015-Jul-14 18:31N 53°45' W 000°17'0 0.0
2015-Jul-14 17:31N 53°45' W 000°17'0 0.0
2015-Jul-14 16:31N 53°45' W 000°17'0 0.4
2015-Jul-14 15:34N 53°44' W 000°17'1 1.0
2015-Jul-14 14:33N 53°45' W 000°16'0 0.0
2015-Jul-14 13:33N 53°45' W 000°16'0 0.0
2015-Jul-14 12:33N 53°45' W 000°16'0 0.0
2015-Jul-14 11:33N 53°45' W 000°16'0 0.0
2015-Jul-14 10:33N 53°45' W 000°16'0 0.0
2015-Jul-14 09:33N 53°45' W 000°16'0 0.0
2015-Jul-14 08:33N 53°45' W 000°16'0 0.0
2015-Jul-14 07:33N 53°45' W 000°16'0 0.0
2015-Jul-14 06:33N 53°45' W 000°16'0 0.0
2015-Jul-14 05:33N 53°45' W 000°16'0 0.0
2015-Jul-14 04:34N 53°45' W 000°16'0 0.5
2015-Jul-14 03:34N 53°44' W 000°16'5 5.3
2015-Jul-14 02:34N 53°40' W 000°12'1111.1
2015-Jul-14 01:33N 53°35' E 000°05'9 9.3
2015-Jul-14 00:34N 53°37' E 000°20'1410.6
2015-Jul-13 23:15N 53°46' E 000°37'  
Track history (hours):
 
Tides and Currents Weather Stations Pressure Air Temp Water Temp Dewpoint Dewpoint Depression Visibility Wind Speed Wind Dir Waves Ship Positions

Lammy

Last reported at 2015-Jul-23 16:32 UTC. Time now 2015-Jul-30 06:12 UTC.
Position N 57°33' E 017°25'.

Length 95 m; draft 3.8 m.

Type: Cargo ship. MMSI: 245391000.

Date/timePositionNaut miles runAvg speedWind from/ knotsBaromVisibWave heightAir tempDewpointWater temp
2015-Jul-23 16:32N 57°33' E 017°25'1111.0
2015-Jul-23 15:33N 57°22' E 017°24'1111.0
2015-Jul-23 14:32N 57°11' E 017°22'12310.2
2015-Jul-23 02:33N 55°33' E 015°10'1111.4
2015-Jul-23 01:33N 55°27' E 014°52'1111.3
2015-Jul-23 00:33N 55°21' E 014°36'1211.3
2015-Jul-22 23:32N 55°12' E 014°23'1111.5
2015-Jul-22 22:33N 55°04' E 014°10'4911.1
2015-Jul-22 18:06N 54°45' E 012°51'610.6
2015-Jul-22 17:33N 54°43' E 012°41'1513.6
2015-Jul-22 16:29N 54°35' E 012°20'8 8.3
2015-Jul-22 15:33N 54°28' E 012°14'1010.1
2015-Jul-22 14:33N 54°21' E 012°02'1010.3
2015-Jul-22 13:33N 54°17' E 011°46'1010.3
2015-Jul-22 12:33N 54°12' E 011°30'1010.3
2015-Jul-22 11:33N 54°07' E 011°15'8 0.2
2015-Jul-21 03:12N 54°04' E 011°03'4 6.9
2015-Jul-21 02:33N 54°07' E 011°09'6 6.5
2015-Jul-21 01:33N 54°11' E 011°16'6 6.5
2015-Jul-21 00:33N 54°17' E 011°20'6 6.3
2015-Jul-20 23:33N 54°23' E 011°24'6 6.1
2015-Jul-20 22:33N 54°29' E 011°22'6 6.4
2015-Jul-20 21:33N 54°34' E 011°14'8 7.6
2015-Jul-20 20:33N 54°38' E 011°03'10 7.0
2015-Jul-20 19:11N 54°45' E 010°52'6 8.1
2015-Jul-20 18:27N 54°51' E 010°52'114 7.7
2015-Jul-20 03:31N 56°41' E 011°47'9 9.2
2015-Jul-20 02:33N 56°50' E 011°48'1210.2
2015-Jul-20 01:23N 57°02' E 011°40'8 9.9
2015-Jul-20 00:33N 57°09' E 011°35'1010.2
2015-Jul-19 23:33N 57°19' E 011°29'1010.4
2015-Jul-19 22:33N 57°29' E 011°22'1110.7
2015-Jul-19 21:33N 57°36' E 011°07'1110.4
2015-Jul-19 20:31N 57°43' E 010°52'41510.7
2015-Jul-18 05:33N 55°05' W 000°41'1110.7
2015-Jul-18 04:31N 55°00' W 000°59'14 0.6
2015-Jul-17 04:21N 54°54' W 001°22'0 0.0
2015-Jul-16 22:33N 54°54' W 001°22'0 0.0
2015-Jul-16 21:24N 54°54' W 001°22'0 0.0
2015-Jul-16 20:30N 54°54' W 001°22'0 0.0
2015-Jul-16 16:16N 54°54' W 001°22'1 0.9
2015-Jul-16 15:31N 54°55' W 001°22'3 3.1
2015-Jul-16 14:33N 54°53' W 001°17'3 3.0
2015-Jul-16 13:33N 54°56' W 001°16'4 4.3
2015-Jul-16 12:33N 54°53' W 001°12'4 4.1
2015-Jul-16 11:33N 54°53' W 001°04'7 7.4
2015-Jul-16 10:33N 54°47' W 000°57'8 8.1
2015-Jul-16 09:33N 54°43' W 000°45'9 8.4
2015-Jul-16 08:31N 54°38' W 000°32'8 8.0
2015-Jul-16 07:33N 54°34' W 000°21'9 8.5
2015-Jul-16 06:33N 54°26' W 000°14'8 8.4
2015-Jul-16 05:33N 54°19' W 000°06'8 7.6
2015-Jul-16 04:33N 54°13' E 000°01'7 7.0
2015-Jul-16 03:33N 54°06' E 000°06'7 7.0
2015-Jul-16 02:33N 53°60' E 000°10'7 7.0
2015-Jul-16 01:33N 53°53' E 000°14'7 7.1
2015-Jul-16 00:33N 53°46' E 000°18'8 7.7
2015-Jul-15 23:33N 53°39' E 000°22'1010.3
2015-Jul-15 22:33N 53°33' E 000°08'1413.7
2015-Jul-15 21:33N 53°40' W 000°12'6 6.0
2015-Jul-15 20:34N 53°45' W 000°18'0 0.3
2015-Jul-15 19:31N 53°45' W 000°17'0 0.0
2015-Jul-15 18:31N 53°45' W 000°17'0 0.0
2015-Jul-15 17:31N 53°45' W 000°17'0 0.0
2015-Jul-15 16:31N 53°45' W 000°17'0 0.0
2015-Jul-15 15:31N 53°45' W 000°17'0 0.0
2015-Jul-15 14:31N 53°45' W 000°17'0 0.0
2015-Jul-15 13:31N 53°45' W 000°17'0 0.0
2015-Jul-15 12:31N 53°45' W 000°17'0 0.0
2015-Jul-15 11:31N 53°45' W 000°17'0 0.0
2015-Jul-15 10:31N 53°45' W 000°17'0 0.0
2015-Jul-15 09:31N 53°45' W 000°17'0 0.0
2015-Jul-15 08:31N 53°45' W 000°17'0 0.0
2015-Jul-15 07:31N 53°45' W 000°17'0 0.0
2015-Jul-15 06:31N 53°45' W 000°17'0 0.0
2015-Jul-15 05:31N 53°45' W 000°17'0 0.0
2015-Jul-15 04:31N 53°45' W 000°17'0 0.0
2015-Jul-15 03:31N 53°45' W 000°17'0 0.0
2015-Jul-15 02:31N 53°45' W 000°17'0 0.0
2015-Jul-15 01:31N 53°45' W 000°17'0 0.0
2015-Jul-15 00:31N 53°45' W 000°17'0 0.0
2015-Jul-14 23:31N 53°45' W 000°17'0 0.0
2015-Jul-14 22:31N 53°45' W 000°17'0 0.0
2015-Jul-14 21:31N 53°45' W 000°17'0 0.0
2015-Jul-14 20:31N 53°45' W 000°17'0 0.0
2015-Jul-14 19:31N 53°45' W 000°17'0 0.1
2015-Jul-14 18:31N 53°45' W 000°17'0 0.0
2015-Jul-14 17:31N 53°45' W 000°17'0 0.0
2015-Jul-14 16:31N 53°45' W 000°17'0 0.4
2015-Jul-14 15:34N 53°44' W 000°17'1 1.0
2015-Jul-14 14:33N 53°45' W 000°16'0 0.0
2015-Jul-14 13:33N 53°45' W 000°16'0 0.0
2015-Jul-14 12:33N 53°45' W 000°16'0 0.0
2015-Jul-14 11:33N 53°45' W 000°16'0 0.0
2015-Jul-14 10:33N 53°45' W 000°16'0 0.0
2015-Jul-14 09:33N 53°45' W 000°16'0 0.0
2015-Jul-14 08:33N 53°45' W 000°16'0 0.0
2015-Jul-14 07:33N 53°45' W 000°16'0 0.0
2015-Jul-14 06:33N 53°45' W 000°16'0 0.0
2015-Jul-14 05:33N 53°45' W 000°16'0 0.0
2015-Jul-14 04:34N 53°45' W 000°16'0 0.5
2015-Jul-14 03:34N 53°44' W 000°16'5 5.3
2015-Jul-14 02:34N 53°40' W 000°12'1111.1
2015-Jul-14 01:33N 53°35' E 000°05'9 9.3
2015-Jul-14 00:34N 53°37' E 000°20'1410.6
2015-Jul-13 23:15N 53°46' E 000°37'  

Dump ship's entire track history